sensor_id;sensor_type;location;lat;lon;timestamp;temperature;humidity
21061;DHT22;10689;50.836;3.266;2023-01-30T00:00:59;7.20;99.90
21061;DHT22;10689;50.836;3.266;2023-01-30T00:03:25;7.20;99.90
21061;DHT22;10689;50.836;3.266;2023-01-30T00:05:54;7.10;99.90
21061;DHT22;10689;50.836;3.266;2023-01-30T00:08:19;7.20;99.90
21061;DHT22;10689;50.836;3.266;2023-01-30T00:10:46;7.10;99.90
21061;DHT22;10689;50.836;3.266;2023-01-30T00:13:13;7.00;99.90
21061;DHT22;10689;50.836;3.266;2023-01-30T00:15:39;6.90;99.90
21061;DHT22;10689;50.836;3.266;2023-01-30T00:18:05;7.00;99.90
21061;DHT22;10689;50.836;3.266;2023-01-30T00:20:31;7.00;99.90
21061;DHT22;10689;50.836;3.266;2023-01-30T00:22:57;7.00;99.90
21061;DHT22;10689;50.836;3.266;2023-01-30T00:25:28;7.00;99.90
21061;DHT22;10689;50.836;3.266;2023-01-30T00:27:58;7.00;99.90
21061;DHT22;10689;50.836;3.266;2023-01-30T00:30:23;6.90;99.90
21061;DHT22;10689;50.836;3.266;2023-01-30T00:32:54;7.10;99.90
21061;DHT22;10689;50.836;3.266;2023-01-30T00:35:22;7.10;99.90
21061;DHT22;10689;50.836;3.266;2023-01-30T00:37:56;7.00;99.90
21061;DHT22;10689;50.836;3.266;2023-01-30T00:40:22;7.10;99.90
21061;DHT22;10689;50.836;3.266;2023-01-30T00:42:48;7.10;99.90
21061;DHT22;10689;50.836;3.266;2023-01-30T00:45:33;7.10;99.90
21061;DHT22;10689;50.836;3.266;2023-01-30T00:48:17;7.20;99.90
21061;DHT22;10689;50.836;3.266;2023-01-30T00:50:43;7.30;99.90
21061;DHT22;10689;50.836;3.266;2023-01-30T00:53:13;7.30;99.90
21061;DHT22;10689;50.836;3.266;2023-01-30T00:55:39;7.30;99.90
21061;DHT22;10689;50.836;3.266;2023-01-30T00:58:06;7.50;99.90
21061;DHT22;10689;50.836;3.266;2023-01-30T01:00:35;7.50;99.90
21061;DHT22;10689;50.836;3.266;2023-01-30T01:03:03;7.70;99.90
21061;DHT22;10689;50.836;3.266;2023-01-30T01:05:29;7.70;99.90
21061;DHT22;10689;50.836;3.266;2023-01-30T01:07:55;7.70;99.90
21061;DHT22;10689;50.836;3.266;2023-01-30T01:10:21;7.90;99.90
21061;DHT22;10689;50.836;3.266;2023-01-30T01:12:50;8.00;99.90
21061;DHT22;10689;50.836;3.266;2023-01-30T01:15:20;8.00;99.90
21061;DHT22;10689;50.836;3.266;2023-01-30T01:17:48;8.00;99.90
21061;DHT22;10689;50.836;3.266;2023-01-30T01:20:15;7.90;99.90
21061;DHT22;10689;50.836;3.266;2023-01-30T01:22:43;8.00;99.90
21061;DHT22;10689;50.836;3.266;2023-01-30T01:25:09;8.10;99.90
21061;DHT22;10689;50.836;3.266;2023-01-30T01:27:36;8.10;99.90
21061;DHT22;10689;50.836;3.266;2023-01-30T01:30:05;8.10;99.90
21061;DHT22;10689;50.836;3.266;2023-01-30T01:32:31;8.10;99.90
21061;DHT22;10689;50.836;3.266;2023-01-30T01:34:58;8.10;99.90
21061;DHT22;10689;50.836;3.266;2023-01-30T01:37:23;8.20;99.90
21061;DHT22;10689;50.836;3.266;2023-01-30T01:39:51;8.20;99.90
21061;DHT22;10689;50.836;3.266;2023-01-30T01:42:37;8.20;99.90
21061;DHT22;10689;50.836;3.266;2023-01-30T01:48:04;8.20;99.90
21061;DHT22;10689;50.836;3.266;2023-01-30T01:50:50;8.30;99.90
21061;DHT22;10689;50.836;3.266;2023-01-30T01:53:23;8.30;99.90
21061;DHT22;10689;50.836;3.266;2023-01-30T01:55:53;8.40;99.90
21061;DHT22;10689;50.836;3.266;2023-01-30T01:58:25;8.40;99.90
21061;DHT22;10689;50.836;3.266;2023-01-30T02:00:54;8.40;99.90
21061;DHT22;10689;50.836;3.266;2023-01-30T02:03:25;8.40;99.90
21061;DHT22;10689;50.836;3.266;2023-01-30T02:05:56;8.50;99.90
21061;DHT22;10689;50.836;3.266;2023-01-30T02:08:34;8.50;99.90
21061;DHT22;10689;50.836;3.266;2023-01-30T02:11:13;8.50;99.90
21061;DHT22;10689;50.836;3.266;2023-01-30T02:13:51;8.50;99.90
21061;DHT22;10689;50.836;3.266;2023-01-30T02:16:19;8.60;99.90
21061;DHT22;10689;50.836;3.266;2023-01-30T02:18:46;8.60;99.90
21061;DHT22;10689;50.836;3.266;2023-01-30T02:33:02;8.60;99.90
21061;DHT22;10689;50.836;3.266;2023-01-30T02:38:40;8.40;99.90
21061;DHT22;10689;50.836;3.266;2023-01-30T02:41:33;8.30;99.90
21061;DHT22;10689;50.836;3.266;2023-01-30T02:44:14;8.30;99.90
21061;DHT22;10689;50.836;3.266;2023-01-30T02:46:51;8.30;99.90
21061;DHT22;10689;50.836;3.266;2023-01-30T02:49:43;8.40;99.90
21061;DHT22;10689;50.836;3.266;2023-01-30T02:52:14;8.30;99.90
21061;DHT22;10689;50.836;3.266;2023-01-30T02:54:40;8.30;99.90
21061;DHT22;10689;50.836;3.266;2023-01-30T02:57:22;8.40;99.90
21061;DHT22;10689;50.836;3.266;2023-01-30T02:59:53;8.30;99.90
21061;DHT22;10689;50.836;3.266;2023-01-30T03:10:42;8.40;99.90
21061;DHT22;10689;50.836;3.266;2023-01-30T03:13:39;8.50;99.90
21061;DHT22;10689;50.836;3.266;2023-01-30T03:16:11;8.60;99.90
21061;DHT22;10689;50.836;3.266;2023-01-30T03:18:46;8.50;99.90
21061;DHT22;10689;50.836;3.266;2023-01-30T03:21:12;8.40;99.90
21061;DHT22;10689;50.836;3.266;2023-01-30T03:23:38;8.30;99.90
21061;DHT22;10689;50.836;3.266;2023-01-30T03:26:08;8.20;99.90
21061;DHT22;10689;50.836;3.266;2023-01-30T03:28:35;8.10;99.90
21061;DHT22;10689;50.836;3.266;2023-01-30T03:31:02;8.20;99.90
21061;DHT22;10689;50.836;3.266;2023-01-30T03:33:28;8.20;99.90
21061;DHT22;10689;50.836;3.266;2023-01-30T03:35:54;8.20;99.90
21061;DHT22;10689;50.836;3.266;2023-01-30T03:38:21;8.20;99.90
21061;DHT22;10689;50.836;3.266;2023-01-30T03:40:46;8.30;99.90
21061;DHT22;10689;50.836;3.266;2023-01-30T03:43:13;8.20;99.90
21061;DHT22;10689;50.836;3.266;2023-01-30T03:45:41;8.20;99.90
21061;DHT22;10689;50.836;3.266;2023-01-30T03:48:07;8.10;99.90
21061;DHT22;10689;50.836;3.266;2023-01-30T03:50:35;8.00;99.90
21061;DHT22;10689;50.836;3.266;2023-01-30T03:53:01;8.10;99.90
21061;DHT22;10689;50.836;3.266;2023-01-30T03:55:27;8.10;99.90
21061;DHT22;10689;50.836;3.266;2023-01-30T03:57:56;8.20;99.90
21061;DHT22;10689;50.836;3.266;2023-01-30T04:00:22;8.20;99.90
21061;DHT22;10689;50.836;3.266;2023-01-30T04:02:49;8.20;99.90
21061;DHT22;10689;50.836;3.266;2023-01-30T04:05:15;8.30;99.90
21061;DHT22;10689;50.836;3.266;2023-01-30T04:07:41;8.30;99.90
21061;DHT22;10689;50.836;3.266;2023-01-30T04:10:08;8.30;99.90
21061;DHT22;10689;50.836;3.266;2023-01-30T04:12:34;8.30;99.90
21061;DHT22;10689;50.836;3.266;2023-01-30T04:15:02;8.20;99.90
21061;DHT22;10689;50.836;3.266;2023-01-30T04:17:28;8.20;99.90
21061;DHT22;10689;50.836;3.266;2023-01-30T04:19:54;8.20;99.90
21061;DHT22;10689;50.836;3.266;2023-01-30T04:22:20;8.20;99.90
21061;DHT22;10689;50.836;3.266;2023-01-30T04:24:51;8.10;99.90
21061;DHT22;10689;50.836;3.266;2023-01-30T04:27:16;8.30;99.90
21061;DHT22;10689;50.836;3.266;2023-01-30T04:29:44;8.20;99.90
21061;DHT22;10689;50.836;3.266;2023-01-30T04:32:10;8.20;99.90
21061;DHT22;10689;50.836;3.266;2023-01-30T04:34:36;8.30;99.90
21061;DHT22;10689;50.836;3.266;2023-01-30T04:37:02;8.40;99.90
21061;DHT22;10689;50.836;3.266;2023-01-30T04:39:27;8.30;99.90
21061;DHT22;10689;50.836;3.266;2023-01-30T04:41:53;8.30;99.90
21061;DHT22;10689;50.836;3.266;2023-01-30T04:44:19;8.20;99.90
21061;DHT22;10689;50.836;3.266;2023-01-30T04:46:45;8.20;99.90
21061;DHT22;10689;50.836;3.266;2023-01-30T04:49:11;8.40;99.90
21061;DHT22;10689;50.836;3.266;2023-01-30T04:51:37;8.40;99.90
21061;DHT22;10689;50.836;3.266;2023-01-30T04:54:05;8.30;99.90
21061;DHT22;10689;50.836;3.266;2023-01-30T04:56:33;8.30;99.90
21061;DHT22;10689;50.836;3.266;2023-01-30T04:59:02;8.30;99.90
21061;DHT22;10689;50.836;3.266;2023-01-30T05:01:35;8.30;99.90
21061;DHT22;10689;50.836;3.266;2023-01-30T05:04:02;8.30;99.90
21061;DHT22;10689;50.836;3.266;2023-01-30T05:06:29;8.40;99.90
21061;DHT22;10689;50.836;3.266;2023-01-30T05:08:55;8.50;99.90
21061;DHT22;10689;50.836;3.266;2023-01-30T05:11:23;8.40;99.90
21061;DHT22;10689;50.836;3.266;2023-01-30T05:13:49;8.40;99.90
21061;DHT22;10689;50.836;3.266;2023-01-30T05:16:16;8.40;99.90
21061;DHT22;10689;50.836;3.266;2023-01-30T05:18:42;8.60;99.90
21061;DHT22;10689;50.836;3.266;2023-01-30T05:21:16;8.50;99.90
21061;DHT22;10689;50.836;3.266;2023-01-30T05:23:42;8.50;99.90
21061;DHT22;10689;50.836;3.266;2023-01-30T05:26:08;8.50;99.90
21061;DHT22;10689;50.836;3.266;2023-01-30T05:28:35;8.60;99.90
21061;DHT22;10689;50.836;3.266;2023-01-30T05:31:05;8.60;99.90
21061;DHT22;10689;50.836;3.266;2023-01-30T05:33:37;8.50;99.90
21061;DHT22;10689;50.836;3.266;2023-01-30T05:36:03;8.50;99.90
21061;DHT22;10689;50.836;3.266;2023-01-30T05:38:32;8.40;99.90
21061;DHT22;10689;50.836;3.266;2023-01-30T05:41:08;8.40;99.90
21061;DHT22;10689;50.836;3.266;2023-01-30T05:43:35;8.40;99.90
21061;DHT22;10689;50.836;3.266;2023-01-30T05:46:02;8.40;99.90
21061;DHT22;10689;50.836;3.266;2023-01-30T05:48:28;8.30;99.90
21061;DHT22;10689;50.836;3.266;2023-01-30T05:50:55;8.30;99.90
21061;DHT22;10689;50.836;3.266;2023-01-30T05:53:23;8.30;99.90
21061;DHT22;10689;50.836;3.266;2023-01-30T05:55:55;8.30;99.90
21061;DHT22;10689;50.836;3.266;2023-01-30T05:58:22;8.30;99.90
21061;DHT22;10689;50.836;3.266;2023-01-30T06:00:48;8.30;99.90
21061;DHT22;10689;50.836;3.266;2023-01-30T06:03:15;8.50;99.90
21061;DHT22;10689;50.836;3.266;2023-01-30T06:05:43;8.50;99.90
21061;DHT22;10689;50.836;3.266;2023-01-30T06:08:09;8.60;99.90
21061;DHT22;10689;50.836;3.266;2023-01-30T06:10:35;8.50;99.90
21061;DHT22;10689;50.836;3.266;2023-01-30T06:13:01;8.50;99.90
21061;DHT22;10689;50.836;3.266;2023-01-30T06:15:27;8.50;99.90
21061;DHT22;10689;50.836;3.266;2023-01-30T06:17:56;8.50;99.90
21061;DHT22;10689;50.836;3.266;2023-01-30T06:20:22;8.60;99.90
21061;DHT22;10689;50.836;3.266;2023-01-30T06:22:50;8.60;99.90
21061;DHT22;10689;50.836;3.266;2023-01-30T06:25:17;8.60;99.90
21061;DHT22;10689;50.836;3.266;2023-01-30T06:27:44;8.70;99.90
21061;DHT22;10689;50.836;3.266;2023-01-30T06:30:10;8.70;99.90
21061;DHT22;10689;50.836;3.266;2023-01-30T06:32:42;8.70;99.90
21061;DHT22;10689;50.836;3.266;2023-01-30T06:35:10;8.70;99.90
21061;DHT22;10689;50.836;3.266;2023-01-30T06:37:37;8.90;99.90
21061;DHT22;10689;50.836;3.266;2023-01-30T06:40:03;8.80;99.90
21061;DHT22;10689;50.836;3.266;2023-01-30T06:42:34;8.90;99.90
21061;DHT22;10689;50.836;3.266;2023-01-30T06:45:00;8.80;99.90
21061;DHT22;10689;50.836;3.266;2023-01-30T06:47:28;8.80;99.90
21061;DHT22;10689;50.836;3.266;2023-01-30T06:49:57;8.80;99.90
21061;DHT22;10689;50.836;3.266;2023-01-30T06:52:23;8.70;99.90
21061;DHT22;10689;50.836;3.266;2023-01-30T06:54:50;8.70;99.90
21061;DHT22;10689;50.836;3.266;2023-01-30T06:57:18;8.70;99.90
21061;DHT22;10689;50.836;3.266;2023-01-30T06:59:44;8.70;99.90
21061;DHT22;10689;50.836;3.266;2023-01-30T07:02:12;8.70;99.90
21061;DHT22;10689;50.836;3.266;2023-01-30T07:04:38;8.70;99.90
21061;DHT22;10689;50.836;3.266;2023-01-30T07:07:05;8.70;99.90
21061;DHT22;10689;50.836;3.266;2023-01-30T07:09:32;8.70;99.90
21061;DHT22;10689;50.836;3.266;2023-01-30T07:12:00;8.70;99.90
21061;DHT22;10689;50.836;3.266;2023-01-30T07:14:26;8.60;99.90
21061;DHT22;10689;50.836;3.266;2023-01-30T07:16:55;8.60;99.90
21061;DHT22;10689;50.836;3.266;2023-01-30T07:19:21;8.60;99.90
21061;DHT22;10689;50.836;3.266;2023-01-30T07:21:50;8.60;99.90
21061;DHT22;10689;50.836;3.266;2023-01-30T07:24:15;8.60;99.90
21061;DHT22;10689;50.836;3.266;2023-01-30T07:26:46;8.50;99.90
21061;DHT22;10689;50.836;3.266;2023-01-30T07:29:12;8.50;99.90
21061;DHT22;10689;50.836;3.266;2023-01-30T07:31:41;8.40;99.90
21061;DHT22;10689;50.836;3.266;2023-01-30T07:34:06;8.50;99.90
21061;DHT22;10689;50.836;3.266;2023-01-30T07:36:35;8.50;99.90
21061;DHT22;10689;50.836;3.266;2023-01-30T07:39:03;8.70;99.90
21061;DHT22;10689;50.836;3.266;2023-01-30T07:41:29;8.60;99.90
21061;DHT22;10689;50.836;3.266;2023-01-30T07:43:54;8.60;99.90
21061;DHT22;10689;50.836;3.266;2023-01-30T07:46:20;8.60;99.90
21061;DHT22;10689;50.836;3.266;2023-01-30T07:48:49;8.60;99.90
21061;DHT22;10689;50.836;3.266;2023-01-30T07:51:15;8.60;99.90
21061;DHT22;10689;50.836;3.266;2023-01-30T07:53:40;8.50;99.90
21061;DHT22;10689;50.836;3.266;2023-01-30T07:56:12;8.50;99.90
21061;DHT22;10689;50.836;3.266;2023-01-30T07:58:44;8.50;99.90
21061;DHT22;10689;50.836;3.266;2023-01-30T08:01:13;8.60;99.90
21061;DHT22;10689;50.836;3.266;2023-01-30T08:03:39;8.50;99.90
21061;DHT22;10689;50.836;3.266;2023-01-30T08:06:06;8.50;99.90
21061;DHT22;10689;50.836;3.266;2023-01-30T08:08:33;8.40;99.90
21061;DHT22;10689;50.836;3.266;2023-01-30T08:10:59;8.40;99.90
21061;DHT22;10689;50.836;3.266;2023-01-30T08:13:30;8.40;99.90
21061;DHT22;10689;50.836;3.266;2023-01-30T08:16:00;8.30;99.90
21061;DHT22;10689;50.836;3.266;2023-01-30T08:18:30;8.20;99.90
21061;DHT22;10689;50.836;3.266;2023-01-30T08:21:01;8.20;99.90
21061;DHT22;10689;50.836;3.266;2023-01-30T08:23:33;8.30;99.90
21061;DHT22;10689;50.836;3.266;2023-01-30T08:26:01;8.20;99.90
21061;DHT22;10689;50.836;3.266;2023-01-30T08:28:28;8.20;99.90
21061;DHT22;10689;50.836;3.266;2023-01-30T08:30:57;8.20;99.90
21061;DHT22;10689;50.836;3.266;2023-01-30T08:33:25;8.20;99.90
21061;DHT22;10689;50.836;3.266;2023-01-30T08:35:54;8.20;99.90
21061;DHT22;10689;50.836;3.266;2023-01-30T08:38:20;8.20;99.90
21061;DHT22;10689;50.836;3.266;2023-01-30T08:40:49;8.10;99.90
21061;DHT22;10689;50.836;3.266;2023-01-30T08:43:25;8.10;99.90
21061;DHT22;10689;50.836;3.266;2023-01-30T08:45:55;8.10;99.90
21061;DHT22;10689;50.836;3.266;2023-01-30T08:48:22;8.10;99.90
21061;DHT22;10689;50.836;3.266;2023-01-30T08:50:52;8.10;99.90
21061;DHT22;10689;50.836;3.266;2023-01-30T08:53:26;8.20;99.90
21061;DHT22;10689;50.836;3.266;2023-01-30T08:55:52;8.30;99.90
21061;DHT22;10689;50.836;3.266;2023-01-30T08:58:19;8.20;99.90
21061;DHT22;10689;50.836;3.266;2023-01-30T09:00:46;8.20;99.90
21061;DHT22;10689;50.836;3.266;2023-01-30T09:03:15;8.20;99.90
21061;DHT22;10689;50.836;3.266;2023-01-30T09:05:42;8.30;99.90
21061;DHT22;10689;50.836;3.266;2023-01-30T09:08:07;8.30;99.90
21061;DHT22;10689;50.836;3.266;2023-01-30T09:10:33;8.30;99.90
21061;DHT22;10689;50.836;3.266;2023-01-30T09:13:02;8.30;99.90
21061;DHT22;10689;50.836;3.266;2023-01-30T09:15:30;8.30;99.90
21061;DHT22;10689;50.836;3.266;2023-01-30T09:17:56;8.40;99.90
21061;DHT22;10689;50.836;3.266;2023-01-30T09:20:25;8.30;99.90
21061;DHT22;10689;50.836;3.266;2023-01-30T09:22:51;8.30;99.90
21061;DHT22;10689;50.836;3.266;2023-01-30T09:25:20;8.30;99.90
21061;DHT22;10689;50.836;3.266;2023-01-30T09:27:49;8.30;99.90
21061;DHT22;10689;50.836;3.266;2023-01-30T09:30:18;8.30;99.90
21061;DHT22;10689;50.836;3.266;2023-01-30T09:32:44;8.30;99.90
21061;DHT22;10689;50.836;3.266;2023-01-30T09:35:10;8.50;99.90
21061;DHT22;10689;50.836;3.266;2023-01-30T09:37:37;8.40;99.90
21061;DHT22;10689;50.836;3.266;2023-01-30T09:40:03;8.50;99.90
21061;DHT22;10689;50.836;3.266;2023-01-30T09:53:05;8.80;99.90
21061;DHT22;10689;50.836;3.266;2023-01-30T09:55:38;8.80;99.90
21061;DHT22;10689;50.836;3.266;2023-01-30T09:58:16;8.90;99.90
21061;DHT22;10689;50.836;3.266;2023-01-30T10:00:48;8.90;99.90
21061;DHT22;10689;50.836;3.266;2023-01-30T10:03:29;9.00;99.90
21061;DHT22;10689;50.836;3.266;2023-01-30T10:06:06;9.00;99.90
21061;DHT22;10689;50.836;3.266;2023-01-30T10:14:49;9.10;99.90
21061;DHT22;10689;50.836;3.266;2023-01-30T10:17:46;9.00;99.90
21061;DHT22;10689;50.836;3.266;2023-01-30T10:20:14;9.00;99.90
21061;DHT22;10689;50.836;3.266;2023-01-30T10:25:53;8.90;99.90
21061;DHT22;10689;50.836;3.266;2023-01-30T10:30:54;8.90;99.90
21061;DHT22;10689;50.836;3.266;2023-01-30T10:33:34;8.90;99.90
21061;DHT22;10689;50.836;3.266;2023-01-30T10:36:11;8.90;99.90
21061;DHT22;10689;50.836;3.266;2023-01-30T10:38:43;8.90;99.90
21061;DHT22;10689;50.836;3.266;2023-01-30T10:41:23;9.10;99.90
21061;DHT22;10689;50.836;3.266;2023-01-30T10:44:33;9.00;99.90
21061;DHT22;10689;50.836;3.266;2023-01-30T10:47:21;9.00;99.90
21061;DHT22;10689;50.836;3.266;2023-01-30T10:49:53;9.10;99.90
21061;DHT22;10689;50.836;3.266;2023-01-30T11:00:26;9.40;99.90
21061;DHT22;10689;50.836;3.266;2023-01-30T11:05:50;9.40;99.90
21061;DHT22;10689;50.836;3.266;2023-01-30T11:08:31;9.50;99.90
21061;DHT22;10689;50.836;3.266;2023-01-30T11:11:00;9.50;99.90
21061;DHT22;10689;50.836;3.266;2023-01-30T11:13:32;9.70;99.90
21061;DHT22;10689;50.836;3.266;2023-01-30T11:16:03;9.70;99.90
21061;DHT22;10689;50.836;3.266;2023-01-30T11:18:46;9.70;99.90
21061;DHT22;10689;50.836;3.266;2023-01-30T11:21:24;9.70;99.90
21061;DHT22;10689;50.836;3.266;2023-01-30T11:23:53;9.80;99.90
21061;DHT22;10689;50.836;3.266;2023-01-30T11:26:35;9.70;99.90
21061;DHT22;10689;50.836;3.266;2023-01-30T11:29:31;9.90;99.90
21061;DHT22;10689;50.836;3.266;2023-01-30T11:32:02;9.80;99.90
21061;DHT22;10689;50.836;3.266;2023-01-30T11:34:31;9.90;99.90
21061;DHT22;10689;50.836;3.266;2023-01-30T11:37:21;9.90;99.90
21061;DHT22;10689;50.836;3.266;2023-01-30T11:39:51;9.90;99.90
21061;DHT22;10689;50.836;3.266;2023-01-30T11:42:23;9.90;99.90
21061;DHT22;10689;50.836;3.266;2023-01-30T11:45:09;9.90;99.90
21061;DHT22;10689;50.836;3.266;2023-01-30T11:47:35;9.90;99.90
21061;DHT22;10689;50.836;3.266;2023-01-30T11:50:02;9.80;99.90
21061;DHT22;10689;50.836;3.266;2023-01-30T11:52:30;9.70;99.90
21061;DHT22;10689;50.836;3.266;2023-01-30T11:55:00;9.80;99.90
21061;DHT22;10689;50.836;3.266;2023-01-30T11:57:39;9.80;99.90
21061;DHT22;10689;50.836;3.266;2023-01-30T12:00:15;10.00;99.90
21061;DHT22;10689;50.836;3.266;2023-01-30T12:02:43;10.00;99.90
21061;DHT22;10689;50.836;3.266;2023-01-30T12:05:31;10.00;99.90
21061;DHT22;10689;50.836;3.266;2023-01-30T12:11:04;9.90;99.90
21061;DHT22;10689;50.836;3.266;2023-01-30T12:13:48;10.10;99.90
21061;DHT22;10689;50.836;3.266;2023-01-30T12:20:11;10.20;99.90
21061;DHT22;10689;50.836;3.266;2023-01-30T12:22:46;10.30;99.90
21061;DHT22;10689;50.836;3.266;2023-01-30T12:25:47;10.30;99.90
21061;DHT22;10689;50.836;3.266;2023-01-30T12:28:23;10.40;99.90
21061;DHT22;10689;50.836;3.266;2023-01-30T12:31:07;10.40;99.90
21061;DHT22;10689;50.836;3.266;2023-01-30T12:33:33;10.50;99.90
21061;DHT22;10689;50.836;3.266;2023-01-30T12:42:14;10.70;99.90
21061;DHT22;10689;50.836;3.266;2023-01-30T12:45:22;10.40;99.90
21061;DHT22;10689;50.836;3.266;2023-01-30T12:47:46;10.30;99.90
21061;DHT22;10689;50.836;3.266;2023-01-30T12:55:48;10.10;99.90
21061;DHT22;10689;50.836;3.266;2023-01-30T12:58:39;10.10;99.90
21061;DHT22;10689;50.836;3.266;2023-01-30T13:01:32;9.80;99.90
21061;DHT22;10689;50.836;3.266;2023-01-30T13:07:00;10.10;99.90
21061;DHT22;10689;50.836;3.266;2023-01-30T13:26:09;9.90;99.90
21061;DHT22;10689;50.836;3.266;2023-01-30T13:28:50;9.90;99.90
21061;DHT22;10689;50.836;3.266;2023-01-30T13:31:27;10.10;99.90
21061;DHT22;10689;50.836;3.266;2023-01-30T13:34:16;9.90;99.90
21061;DHT22;10689;50.836;3.266;2023-01-30T13:37:17;9.70;99.90
21061;DHT22;10689;50.836;3.266;2023-01-30T13:39:54;9.80;99.90
21061;DHT22;10689;50.836;3.266;2023-01-30T13:45:20;9.80;99.90
21061;DHT22;10689;50.836;3.266;2023-01-30T13:51:18;9.90;99.90
21061;DHT22;10689;50.836;3.266;2023-01-30T13:53:48;10.00;99.90
21061;DHT22;10689;50.836;3.266;2023-01-30T14:09:47;9.70;99.90
21061;DHT22;10689;50.836;3.266;2023-01-30T14:12:21;9.60;99.90
21061;DHT22;10689;50.836;3.266;2023-01-30T14:15:02;9.70;99.90
21061;DHT22;10689;50.836;3.266;2023-01-30T14:17:29;9.80;99.90
21061;DHT22;10689;50.836;3.266;2023-01-30T14:20:14;9.80;99.90
21061;DHT22;10689;50.836;3.266;2023-01-30T14:23:00;9.90;99.90
21061;DHT22;10689;50.836;3.266;2023-01-30T14:30:44;9.90;99.90
21061;DHT22;10689;50.836;3.266;2023-01-30T14:38:34;9.90;99.90
21061;DHT22;10689;50.836;3.266;2023-01-30T14:53:56;9.30;99.90
21061;DHT22;10689;50.836;3.266;2023-01-30T14:59:39;9.50;99.90
21061;DHT22;10689;50.836;3.266;2023-01-30T15:13:15;9.40;99.90
21061;DHT22;10689;50.836;3.266;2023-01-30T15:19:06;9.30;99.90
21061;DHT22;10689;50.836;3.266;2023-01-30T15:22:01;9.20;99.90
21061;DHT22;10689;50.836;3.266;2023-01-30T15:32:35;8.90;99.90
21061;DHT22;10689;50.836;3.266;2023-01-30T15:37:49;8.90;99.90
21061;DHT22;10689;50.836;3.266;2023-01-30T15:50:57;8.90;99.90
21061;DHT22;10689;50.836;3.266;2023-01-30T15:53:32;8.70;99.90
21061;DHT22;10689;50.836;3.266;2023-01-30T15:56:01;8.80;99.90
21061;DHT22;10689;50.836;3.266;2023-01-30T15:58:30;8.70;99.90
21061;DHT22;10689;50.836;3.266;2023-01-30T16:00:59;8.70;99.90
21061;DHT22;10689;50.836;3.266;2023-01-30T16:03:29;8.60;99.90
21061;DHT22;10689;50.836;3.266;2023-01-30T16:05:57;8.70;99.90
21061;DHT22;10689;50.836;3.266;2023-01-30T16:08:27;8.60;99.90
21061;DHT22;10689;50.836;3.266;2023-01-30T16:10:53;8.70;99.90
21061;DHT22;10689;50.836;3.266;2023-01-30T16:13:20;8.70;99.90
21061;DHT22;10689;50.836;3.266;2023-01-30T16:16:10;8.60;99.90
21061;DHT22;10689;50.836;3.266;2023-01-30T16:18:42;8.60;99.90
21061;DHT22;10689;50.836;3.266;2023-01-30T16:21:37;8.50;99.90
21061;DHT22;10689;50.836;3.266;2023-01-30T16:24:26;8.40;99.90
21061;DHT22;10689;50.836;3.266;2023-01-30T16:27:06;8.20;99.90
21061;DHT22;10689;50.836;3.266;2023-01-30T16:29:42;8.20;99.90
21061;DHT22;10689;50.836;3.266;2023-01-30T16:32:13;8.20;99.90
21061;DHT22;10689;50.836;3.266;2023-01-30T16:34:40;8.10;99.90
21061;DHT22;10689;50.836;3.266;2023-01-30T16:37:25;8.10;99.90
21061;DHT22;10689;50.836;3.266;2023-01-30T16:40:13;8.10;99.90
21061;DHT22;10689;50.836;3.266;2023-01-30T16:42:40;8.00;99.90
21061;DHT22;10689;50.836;3.266;2023-01-30T16:50:46;8.00;99.90
21061;DHT22;10689;50.836;3.266;2023-01-30T16:53:19;7.90;99.90
21061;DHT22;10689;50.836;3.266;2023-01-30T16:55:59;7.90;99.90
21061;DHT22;10689;50.836;3.266;2023-01-30T16:58:34;7.80;99.90
21061;DHT22;10689;50.836;3.266;2023-01-30T17:01:06;7.70;99.90
21061;DHT22;10689;50.836;3.266;2023-01-30T17:03:39;7.70;99.90
21061;DHT22;10689;50.836;3.266;2023-01-30T17:06:09;7.60;99.90
21061;DHT22;10689;50.836;3.266;2023-01-30T17:08:48;7.60;99.90
21061;DHT22;10689;50.836;3.266;2023-01-30T17:11:38;7.70;99.90
21061;DHT22;10689;50.836;3.266;2023-01-30T17:16:43;7.80;99.90
21061;DHT22;10689;50.836;3.266;2023-01-30T17:19:16;7.90;99.90
21061;DHT22;10689;50.836;3.266;2023-01-30T17:21:46;7.70;99.90
21061;DHT22;10689;50.836;3.266;2023-01-30T17:24:18;7.60;99.90
21061;DHT22;10689;50.836;3.266;2023-01-30T17:26:49;7.50;99.90
21061;DHT22;10689;50.836;3.266;2023-01-30T17:29:16;7.40;99.90
21061;DHT22;10689;50.836;3.266;2023-01-30T17:31:48;7.50;99.90
21061;DHT22;10689;50.836;3.266;2023-01-30T17:34:14;7.40;99.90
21061;DHT22;10689;50.836;3.266;2023-01-30T17:36:42;7.50;99.90
21061;DHT22;10689;50.836;3.266;2023-01-30T17:39:12;7.40;99.90
21061;DHT22;10689;50.836;3.266;2023-01-30T17:41:43;7.40;99.90
21061;DHT22;10689;50.836;3.266;2023-01-30T17:44:12;7.40;99.90
21061;DHT22;10689;50.836;3.266;2023-01-30T17:46:42;7.50;99.90
21061;DHT22;10689;50.836;3.266;2023-01-30T17:49:20;7.50;99.90
21061;DHT22;10689;50.836;3.266;2023-01-30T17:51:49;7.50;99.90
21061;DHT22;10689;50.836;3.266;2023-01-30T17:54:15;7.40;99.90
21061;DHT22;10689;50.836;3.266;2023-01-30T17:56:51;7.40;99.90
21061;DHT22;10689;50.836;3.266;2023-01-30T17:59:19;7.50;99.90
21061;DHT22;10689;50.836;3.266;2023-01-30T18:01:47;7.40;99.90
21061;DHT22;10689;50.836;3.266;2023-01-30T18:04:13;7.40;99.90
21061;DHT22;10689;50.836;3.266;2023-01-30T18:06:41;7.40;99.90
21061;DHT22;10689;50.836;3.266;2023-01-30T18:09:17;7.30;99.90
21061;DHT22;10689;50.836;3.266;2023-01-30T18:11:44;7.40;99.90
21061;DHT22;10689;50.836;3.266;2023-01-30T18:14:10;7.50;99.90
21061;DHT22;10689;50.836;3.266;2023-01-30T18:16:36;7.50;99.90
21061;DHT22;10689;50.836;3.266;2023-01-30T18:19:07;7.50;99.90
21061;DHT22;10689;50.836;3.266;2023-01-30T18:21:36;7.50;99.90
21061;DHT22;10689;50.836;3.266;2023-01-30T18:24:05;7.50;99.90
21061;DHT22;10689;50.836;3.266;2023-01-30T18:26:31;7.50;99.90
21061;DHT22;10689;50.836;3.266;2023-01-30T18:28:57;7.40;99.90
21061;DHT22;10689;50.836;3.266;2023-01-30T18:31:27;7.50;99.90
21061;DHT22;10689;50.836;3.266;2023-01-30T18:33:52;7.40;99.90
21061;DHT22;10689;50.836;3.266;2023-01-30T18:36:20;7.30;99.90
21061;DHT22;10689;50.836;3.266;2023-01-30T18:38:49;7.30;99.90
21061;DHT22;10689;50.836;3.266;2023-01-30T18:41:20;7.20;99.90
21061;DHT22;10689;50.836;3.266;2023-01-30T18:43:47;7.30;99.90
21061;DHT22;10689;50.836;3.266;2023-01-30T18:46:17;7.10;99.90
21061;DHT22;10689;50.836;3.266;2023-01-30T18:48:44;7.10;99.90
21061;DHT22;10689;50.836;3.266;2023-01-30T18:51:16;7.00;99.90
21061;DHT22;10689;50.836;3.266;2023-01-30T18:53:42;7.00;99.90
21061;DHT22;10689;50.836;3.266;2023-01-30T18:56:14;7.00;99.90
21061;DHT22;10689;50.836;3.266;2023-01-30T18:58:41;7.00;99.90
21061;DHT22;10689;50.836;3.266;2023-01-30T19:01:20;7.00;99.90
21061;DHT22;10689;50.836;3.266;2023-01-30T19:03:46;6.90;99.90
21061;DHT22;10689;50.836;3.266;2023-01-30T19:06:14;6.90;99.90
21061;DHT22;10689;50.836;3.266;2023-01-30T19:08:42;6.90;99.90
21061;DHT22;10689;50.836;3.266;2023-01-30T19:11:18;7.00;99.90
21061;DHT22;10689;50.836;3.266;2023-01-30T19:14:05;7.00;99.90
21061;DHT22;10689;50.836;3.266;2023-01-30T19:16:33;6.90;99.90